sensor_id;sensor_type;location;lat;lon;timestamp;P1;durP1;ratioP1;P2;durP2;ratioP2
47539;SDS011;33280;52.152;21.052;2023-04-06T00:00:33;7.57;;;4.43;;
47539;SDS011;33280;52.152;21.052;2023-04-06T00:03:00;9.33;;;5.13;;
47539;SDS011;33280;52.152;21.052;2023-04-06T00:05:27;8.73;;;5.13;;
47539;SDS011;33280;52.152;21.052;2023-04-06T00:07:57;10.40;;;4.90;;
47539;SDS011;33280;52.152;21.052;2023-04-06T00:10:24;10.27;;;4.93;;
47539;SDS011;33280;52.152;21.052;2023-04-06T00:12:54;10.27;;;5.40;;
47539;SDS011;33280;52.152;21.052;2023-04-06T00:15:22;8.20;;;5.30;;
47539;SDS011;33280;52.152;21.052;2023-04-06T00:17:49;10.07;;;4.80;;
47539;SDS011;33280;52.152;21.052;2023-04-06T00:20:18;8.20;;;4.90;;
47539;SDS011;33280;52.152;21.052;2023-04-06T00:22:44;7.27;;;4.20;;
47539;SDS011;33280;52.152;21.052;2023-04-06T00:25:11;7.03;;;3.83;;
47539;SDS011;33280;52.152;21.052;2023-04-06T00:27:38;6.87;;;3.77;;
47539;SDS011;33280;52.152;21.052;2023-04-06T00:30:06;7.60;;;3.90;;
47539;SDS011;33280;52.152;21.052;2023-04-06T00:32:34;8.77;;;4.23;;
47539;SDS011;33280;52.152;21.052;2023-04-06T00:35:02;8.17;;;4.03;;
47539;SDS011;33280;52.152;21.052;2023-04-06T00:37:30;7.53;;;4.80;;
47539;SDS011;33280;52.152;21.052;2023-04-06T00:39:57;9.37;;;4.90;;
47539;SDS011;33280;52.152;21.052;2023-04-06T00:42:24;10.47;;;5.00;;
47539;SDS011;33280;52.152;21.052;2023-04-06T00:44:53;9.70;;;5.30;;
47539;SDS011;33280;52.152;21.052;2023-04-06T00:47:21;11.20;;;5.40;;
47539;SDS011;33280;52.152;21.052;2023-04-06T00:49:48;9.43;;;5.37;;
47539;SDS011;33280;52.152;21.052;2023-04-06T00:52:15;8.77;;;5.10;;
47539;SDS011;33280;52.152;21.052;2023-04-06T00:54:42;11.47;;;5.47;;
47539;SDS011;33280;52.152;21.052;2023-04-06T00:57:13;8.87;;;4.90;;
47539;SDS011;33280;52.152;21.052;2023-04-06T00:59:42;10.00;;;5.50;;
47539;SDS011;33280;52.152;21.052;2023-04-06T01:02:09;11.73;;;5.57;;
47539;SDS011;33280;52.152;21.052;2023-04-06T01:04:36;10.37;;;5.43;;
47539;SDS011;33280;52.152;21.052;2023-04-06T01:07:03;10.20;;;5.77;;
47539;SDS011;33280;52.152;21.052;2023-04-06T01:09:30;11.80;;;5.63;;
47539;SDS011;33280;52.152;21.052;2023-04-06T01:11:57;10.53;;;5.53;;
47539;SDS011;33280;52.152;21.052;2023-04-06T01:14:25;10.43;;;5.47;;
47539;SDS011;33280;52.152;21.052;2023-04-06T01:16:52;11.00;;;5.10;;
47539;SDS011;33280;52.152;21.052;2023-04-06T01:19:21;12.10;;;5.40;;
47539;SDS011;33280;52.152;21.052;2023-04-06T01:21:48;11.00;;;5.50;;
47539;SDS011;33280;52.152;21.052;2023-04-06T01:24:16;8.73;;;4.90;;
47539;SDS011;33280;52.152;21.052;2023-04-06T01:26:43;9.60;;;4.70;;
47539;SDS011;33280;52.152;21.052;2023-04-06T01:29:11;9.20;;;4.67;;
47539;SDS011;33280;52.152;21.052;2023-04-06T01:31:38;8.30;;;4.30;;
47539;SDS011;33280;52.152;21.052;2023-04-06T01:34:06;9.83;;;4.60;;
47539;SDS011;33280;52.152;21.052;2023-04-06T01:36:33;6.67;;;4.20;;
47539;SDS011;33280;52.152;21.052;2023-04-06T01:39:00;7.90;;;4.40;;
47539;SDS011;33280;52.152;21.052;2023-04-06T01:41:27;9.73;;;4.63;;
47539;SDS011;33280;52.152;21.052;2023-04-06T01:43:54;9.53;;;4.43;;
47539;SDS011;33280;52.152;21.052;2023-04-06T01:46:21;10.17;;;4.17;;
47539;SDS011;33280;52.152;21.052;2023-04-06T01:48:48;7.47;;;4.07;;
47539;SDS011;33280;52.152;21.052;2023-04-06T01:51:15;7.70;;;4.30;;
47539;SDS011;33280;52.152;21.052;2023-04-06T01:53:42;8.50;;;4.17;;
47539;SDS011;33280;52.152;21.052;2023-04-06T01:56:09;9.47;;;4.40;;
47539;SDS011;33280;52.152;21.052;2023-04-06T01:58:36;9.37;;;4.27;;
47539;SDS011;33280;52.152;21.052;2023-04-06T02:01:03;9.33;;;4.47;;
47539;SDS011;33280;52.152;21.052;2023-04-06T02:03:30;7.47;;;4.30;;
47539;SDS011;33280;52.152;21.052;2023-04-06T02:05:57;6.40;;;3.80;;
47539;SDS011;33280;52.152;21.052;2023-04-06T02:08:24;7.97;;;4.40;;
47539;SDS011;33280;52.152;21.052;2023-04-06T02:10:52;8.43;;;4.40;;
47539;SDS011;33280;52.152;21.052;2023-04-06T02:13:23;7.70;;;4.00;;
47539;SDS011;33280;52.152;21.052;2023-04-06T02:15:50;8.33;;;3.80;;
47539;SDS011;33280;52.152;21.052;2023-04-06T02:18:17;7.83;;;3.77;;
47539;SDS011;33280;52.152;21.052;2023-04-06T02:20:44;8.07;;;4.27;;
47539;SDS011;33280;52.152;21.052;2023-04-06T02:23:11;7.10;;;4.57;;
47539;SDS011;33280;52.152;21.052;2023-04-06T02:25:42;8.87;;;4.37;;
47539;SDS011;33280;52.152;21.052;2023-04-06T02:28:09;7.87;;;3.87;;
47539;SDS011;33280;52.152;21.052;2023-04-06T02:30:36;9.07;;;4.20;;
47539;SDS011;33280;52.152;21.052;2023-04-06T02:33:02;6.37;;;4.00;;
47539;SDS011;33280;52.152;21.052;2023-04-06T02:35:30;8.13;;;4.17;;
47539;SDS011;33280;52.152;21.052;2023-04-06T02:37:57;7.40;;;4.30;;
47539;SDS011;33280;52.152;21.052;2023-04-06T02:40:24;8.77;;;4.30;;
47539;SDS011;33280;52.152;21.052;2023-04-06T02:42:51;7.67;;;4.10;;
47539;SDS011;33280;52.152;21.052;2023-04-06T02:45:18;11.10;;;4.77;;
47539;SDS011;33280;52.152;21.052;2023-04-06T02:47:49;9.47;;;4.00;;
47539;SDS011;33280;52.152;21.052;2023-04-06T02:50:16;10.07;;;4.67;;
47539;SDS011;33280;52.152;21.052;2023-04-06T02:52:43;10.10;;;4.57;;
47539;SDS011;33280;52.152;21.052;2023-04-06T02:55:09;9.30;;;4.70;;
47539;SDS011;33280;52.152;21.052;2023-04-06T02:57:36;8.70;;;4.63;;
47539;SDS011;33280;52.152;21.052;2023-04-06T03:00:03;9.93;;;4.83;;
47539;SDS011;33280;52.152;21.052;2023-04-06T03:02:31;8.20;;;4.10;;
47539;SDS011;33280;52.152;21.052;2023-04-06T03:04:58;7.50;;;4.17;;
47539;SDS011;33280;52.152;21.052;2023-04-06T03:07:25;8.37;;;4.60;;
47539;SDS011;33280;52.152;21.052;2023-04-06T03:09:51;7.67;;;4.10;;
47539;SDS011;33280;52.152;21.052;2023-04-06T03:12:18;9.80;;;4.40;;
47539;SDS011;33280;52.152;21.052;2023-04-06T03:14:45;6.83;;;4.20;;
47539;SDS011;33280;52.152;21.052;2023-04-06T03:17:12;10.37;;;4.27;;
47539;SDS011;33280;52.152;21.052;2023-04-06T03:19:39;9.13;;;4.70;;
47539;SDS011;33280;52.152;21.052;2023-04-06T03:22:06;9.77;;;4.93;;
47539;SDS011;33280;52.152;21.052;2023-04-06T03:24:33;9.47;;;4.70;;
47539;SDS011;33280;52.152;21.052;2023-04-06T03:27:00;11.53;;;5.40;;
47539;SDS011;33280;52.152;21.052;2023-04-06T03:29:27;11.33;;;5.23;;
47539;SDS011;33280;52.152;21.052;2023-04-06T03:31:53;12.70;;;5.73;;
47539;SDS011;33280;52.152;21.052;2023-04-06T03:34:21;11.33;;;5.00;;
47539;SDS011;33280;52.152;21.052;2023-04-06T03:36:48;15.40;;;5.30;;
47539;SDS011;33280;52.152;21.052;2023-04-06T03:39:32;11.97;;;6.00;;
47539;SDS011;33280;52.152;21.052;2023-04-06T03:41:59;12.83;;;5.40;;
47539;SDS011;33280;52.152;21.052;2023-04-06T03:44:25;12.83;;;5.60;;
47539;SDS011;33280;52.152;21.052;2023-04-06T03:46:52;12.50;;;5.80;;
47539;SDS011;33280;52.152;21.052;2023-04-06T03:49:20;14.87;;;5.53;;
47539;SDS011;33280;52.152;21.052;2023-04-06T03:51:47;12.53;;;5.30;;
47539;SDS011;33280;52.152;21.052;2023-04-06T03:54:13;12.47;;;5.10;;
47539;SDS011;33280;52.152;21.052;2023-04-06T03:56:41;12.90;;;5.40;;
47539;SDS011;33280;52.152;21.052;2023-04-06T03:59:11;12.53;;;5.43;;
47539;SDS011;33280;52.152;21.052;2023-04-06T04:01:38;10.23;;;5.10;;
47539;SDS011;33280;52.152;21.052;2023-04-06T04:04:05;10.90;;;5.30;;
47539;SDS011;33280;52.152;21.052;2023-04-06T04:06:32;11.97;;;5.13;;
47539;SDS011;33280;52.152;21.052;2023-04-06T04:09:03;12.27;;;5.73;;
47539;SDS011;33280;52.152;21.052;2023-04-06T04:11:30;12.40;;;5.40;;
47539;SDS011;33280;52.152;21.052;2023-04-06T04:14:12;10.70;;;5.40;;
47539;SDS011;33280;52.152;21.052;2023-04-06T04:16:59;12.73;;;5.17;;
47539;SDS011;33280;52.152;21.052;2023-04-06T04:19:46;11.50;;;5.50;;
47539;SDS011;33280;52.152;21.052;2023-04-06T04:22:26;11.27;;;5.07;;
47539;SDS011;33280;52.152;21.052;2023-04-06T04:24:55;11.53;;;5.50;;
47539;SDS011;33280;52.152;21.052;2023-04-06T04:27:22;19.00;;;6.13;;
47539;SDS011;33280;52.152;21.052;2023-04-06T04:29:49;11.13;;;5.60;;
47539;SDS011;33280;52.152;21.052;2023-04-06T04:32:18;11.80;;;5.47;;
47539;SDS011;33280;52.152;21.052;2023-04-06T04:34:46;13.57;;;5.63;;
47539;SDS011;33280;52.152;21.052;2023-04-06T04:37:16;11.17;;;5.80;;
47539;SDS011;33280;52.152;21.052;2023-04-06T04:39:43;12.27;;;6.20;;
47539;SDS011;33280;52.152;21.052;2023-04-06T04:42:11;10.90;;;5.03;;
47539;SDS011;33280;52.152;21.052;2023-04-06T04:44:38;10.27;;;5.00;;
47539;SDS011;33280;52.152;21.052;2023-04-06T04:47:14;12.63;;;6.10;;
47539;SDS011;33280;52.152;21.052;2023-04-06T04:49:41;9.53;;;4.83;;
47539;SDS011;33280;52.152;21.052;2023-04-06T04:52:08;12.33;;;4.97;;
47539;SDS011;33280;52.152;21.052;2023-04-06T04:54:35;10.40;;;5.17;;
47539;SDS011;33280;52.152;21.052;2023-04-06T04:57:02;10.07;;;4.87;;
47539;SDS011;33280;52.152;21.052;2023-04-06T04:59:29;9.17;;;4.70;;
47539;SDS011;33280;52.152;21.052;2023-04-06T05:01:59;9.37;;;4.93;;
47539;SDS011;33280;52.152;21.052;2023-04-06T05:04:29;11.53;;;5.27;;
47539;SDS011;33280;52.152;21.052;2023-04-06T05:07:03;10.07;;;5.00;;
47539;SDS011;33280;52.152;21.052;2023-04-06T05:09:31;11.53;;;5.30;;
47539;SDS011;33280;52.152;21.052;2023-04-06T05:11:58;8.73;;;4.87;;
47539;SDS011;33280;52.152;21.052;2023-04-06T05:14:26;10.67;;;4.77;;
47539;SDS011;33280;52.152;21.052;2023-04-06T05:16:54;10.20;;;5.30;;
47539;SDS011;33280;52.152;21.052;2023-04-06T05:19:21;8.60;;;4.60;;
47539;SDS011;33280;52.152;21.052;2023-04-06T05:21:48;10.27;;;4.40;;
47539;SDS011;33280;52.152;21.052;2023-04-06T05:24:15;12.50;;;5.03;;
47539;SDS011;33280;52.152;21.052;2023-04-06T05:26:41;9.33;;;4.47;;
47539;SDS011;33280;52.152;21.052;2023-04-06T05:29:09;7.73;;;4.00;;
47539;SDS011;33280;52.152;21.052;2023-04-06T05:31:39;12.53;;;4.40;;
47539;SDS011;33280;52.152;21.052;2023-04-06T05:34:42;9.50;;;4.47;;
47539;SDS011;33280;52.152;21.052;2023-04-06T05:37:09;12.90;;;4.40;;
47539;SDS011;33280;52.152;21.052;2023-04-06T05:39:36;8.20;;;4.43;;
47539;SDS011;33280;52.152;21.052;2023-04-06T05:42:04;9.93;;;3.93;;
47539;SDS011;33280;52.152;21.052;2023-04-06T05:44:32;7.53;;;4.03;;
47539;SDS011;33280;52.152;21.052;2023-04-06T05:46:59;8.33;;;4.40;;
47539;SDS011;33280;52.152;21.052;2023-04-06T05:49:26;8.30;;;4.17;;
47539;SDS011;33280;52.152;21.052;2023-04-06T05:51:54;8.30;;;3.80;;
47539;SDS011;33280;52.152;21.052;2023-04-06T05:54:21;8.80;;;4.20;;
47539;SDS011;33280;52.152;21.052;2023-04-06T05:56:48;6.03;;;3.67;;
47539;SDS011;33280;52.152;21.052;2023-04-06T05:59:15;7.80;;;3.90;;
47539;SDS011;33280;52.152;21.052;2023-04-06T06:01:42;7.07;;;4.10;;
47539;SDS011;33280;52.152;21.052;2023-04-06T06:04:10;8.53;;;3.90;;
47539;SDS011;33280;52.152;21.052;2023-04-06T06:06:37;9.30;;;3.83;;
47539;SDS011;33280;52.152;21.052;2023-04-06T06:09:03;7.40;;;3.90;;
47539;SDS011;33280;52.152;21.052;2023-04-06T06:11:31;8.10;;;3.67;;
47539;SDS011;33280;52.152;21.052;2023-04-06T06:14:00;6.13;;;3.43;;
47539;SDS011;33280;52.152;21.052;2023-04-06T06:16:27;7.80;;;3.70;;
47539;SDS011;33280;52.152;21.052;2023-04-06T06:18:54;8.83;;;3.77;;
47539;SDS011;33280;52.152;21.052;2023-04-06T06:21:21;8.83;;;4.00;;
47539;SDS011;33280;52.152;21.052;2023-04-06T06:23:48;7.87;;;3.43;;
47539;SDS011;33280;52.152;21.052;2023-04-06T06:26:15;8.50;;;3.60;;
47539;SDS011;33280;52.152;21.052;2023-04-06T06:28:43;8.70;;;3.90;;
47539;SDS011;33280;52.152;21.052;2023-04-06T06:31:10;6.97;;;3.33;;
47539;SDS011;33280;52.152;21.052;2023-04-06T06:33:37;7.53;;;3.53;;
47539;SDS011;33280;52.152;21.052;2023-04-06T06:36:04;7.23;;;3.27;;
47539;SDS011;33280;52.152;21.052;2023-04-06T06:38:31;7.67;;;3.03;;
47539;SDS011;33280;52.152;21.052;2023-04-06T06:40:58;5.97;;;3.23;;
47539;SDS011;33280;52.152;21.052;2023-04-06T06:43:29;7.43;;;3.30;;
47539;SDS011;33280;52.152;21.052;2023-04-06T06:45:56;6.17;;;3.30;;
47539;SDS011;33280;52.152;21.052;2023-04-06T06:48:23;6.50;;;3.17;;
47539;SDS011;33280;52.152;21.052;2023-04-06T06:50:50;7.47;;;3.10;;
47539;SDS011;33280;52.152;21.052;2023-04-06T06:53:17;9.13;;;3.10;;
47539;SDS011;33280;52.152;21.052;2023-04-06T06:55:44;5.80;;;2.83;;
47539;SDS011;33280;52.152;21.052;2023-04-06T06:58:11;5.27;;;3.07;;
47539;SDS011;33280;52.152;21.052;2023-04-06T07:00:38;5.83;;;3.23;;
47539;SDS011;33280;52.152;21.052;2023-04-06T07:03:05;6.30;;;3.03;;
47539;SDS011;33280;52.152;21.052;2023-04-06T07:05:32;5.23;;;2.63;;
47539;SDS011;33280;52.152;21.052;2023-04-06T07:07:59;5.17;;;2.47;;
47539;SDS011;33280;52.152;21.052;2023-04-06T07:10:26;4.27;;;2.60;;
47539;SDS011;33280;52.152;21.052;2023-04-06T07:12:54;4.67;;;2.47;;
47539;SDS011;33280;52.152;21.052;2023-04-06T07:15:21;6.60;;;2.87;;
47539;SDS011;33280;52.152;21.052;2023-04-06T07:17:48;5.87;;;2.97;;
47539;SDS011;33280;52.152;21.052;2023-04-06T07:20:16;7.90;;;2.93;;
47539;SDS011;33280;52.152;21.052;2023-04-06T07:22:44;6.60;;;2.80;;
47539;SDS011;33280;52.152;21.052;2023-04-06T07:25:13;5.77;;;2.93;;
47539;SDS011;33280;52.152;21.052;2023-04-06T07:27:41;6.23;;;2.70;;
47539;SDS011;33280;52.152;21.052;2023-04-06T07:30:09;6.03;;;3.23;;
47539;SDS011;33280;52.152;21.052;2023-04-06T07:32:37;5.83;;;2.83;;
47539;SDS011;33280;52.152;21.052;2023-04-06T07:35:05;5.30;;;2.77;;
47539;SDS011;33280;52.152;21.052;2023-04-06T07:37:34;6.20;;;3.17;;
47539;SDS011;33280;52.152;21.052;2023-04-06T07:40:01;6.90;;;3.13;;
47539;SDS011;33280;52.152;21.052;2023-04-06T07:42:28;5.47;;;3.03;;
47539;SDS011;33280;52.152;21.052;2023-04-06T07:44:55;5.30;;;2.93;;
47539;SDS011;33280;52.152;21.052;2023-04-06T07:47:23;6.07;;;3.00;;
47539;SDS011;33280;52.152;21.052;2023-04-06T07:49:50;5.93;;;3.07;;
47539;SDS011;33280;52.152;21.052;2023-04-06T07:52:17;6.40;;;2.70;;
47539;SDS011;33280;52.152;21.052;2023-04-06T07:54:45;5.07;;;3.10;;
47539;SDS011;33280;52.152;21.052;2023-04-06T07:57:13;5.77;;;2.90;;
47539;SDS011;33280;52.152;21.052;2023-04-06T07:59:40;7.00;;;2.90;;
47539;SDS011;33280;52.152;21.052;2023-04-06T08:02:06;5.90;;;2.80;;
47539;SDS011;33280;52.152;21.052;2023-04-06T08:04:34;7.87;;;3.00;;
47539;SDS011;33280;52.152;21.052;2023-04-06T08:07:02;4.27;;;2.80;;
47539;SDS011;33280;52.152;21.052;2023-04-06T08:09:29;5.17;;;2.90;;
47539;SDS011;33280;52.152;21.052;2023-04-06T08:11:56;5.87;;;3.00;;
47539;SDS011;33280;52.152;21.052;2023-04-06T08:14:24;7.47;;;2.70;;
47539;SDS011;33280;52.152;21.052;2023-04-06T08:16:51;4.17;;;2.60;;
47539;SDS011;33280;52.152;21.052;2023-04-06T08:19:17;7.00;;;3.07;;
47539;SDS011;33280;52.152;21.052;2023-04-06T08:21:45;4.33;;;2.60;;
47539;SDS011;33280;52.152;21.052;2023-04-06T08:24:13;4.93;;;2.93;;
47539;SDS011;33280;52.152;21.052;2023-04-06T08:26:41;5.77;;;2.60;;
47539;SDS011;33280;52.152;21.052;2023-04-06T08:29:08;6.77;;;2.80;;
47539;SDS011;33280;52.152;21.052;2023-04-06T08:31:35;5.33;;;2.87;;
47539;SDS011;33280;52.152;21.052;2023-04-06T08:34:03;6.93;;;2.93;;
47539;SDS011;33280;52.152;21.052;2023-04-06T08:36:31;7.00;;;3.10;;
47539;SDS011;33280;52.152;21.052;2023-04-06T08:38:58;4.90;;;2.80;;
47539;SDS011;33280;52.152;21.052;2023-04-06T08:41:27;4.67;;;2.73;;
47539;SDS011;33280;52.152;21.052;2023-04-06T08:43:59;6.63;;;3.03;;
47539;SDS011;33280;52.152;21.052;2023-04-06T08:46:30;6.37;;;3.20;;
47539;SDS011;33280;52.152;21.052;2023-04-06T08:48:59;5.13;;;3.20;;
47539;SDS011;33280;52.152;21.052;2023-04-06T08:51:28;5.67;;;2.80;;
47539;SDS011;33280;52.152;21.052;2023-04-06T08:53:59;7.53;;;3.20;;
47539;SDS011;33280;52.152;21.052;2023-04-06T08:56:26;7.47;;;3.07;;
47539;SDS011;33280;52.152;21.052;2023-04-06T08:58:54;5.23;;;2.80;;
47539;SDS011;33280;52.152;21.052;2023-04-06T09:01:26;7.10;;;3.00;;
47539;SDS011;33280;52.152;21.052;2023-04-06T09:03:55;4.50;;;3.00;;
47539;SDS011;33280;52.152;21.052;2023-04-06T09:06:34;5.83;;;2.80;;
47539;SDS011;33280;52.152;21.052;2023-04-06T09:09:03;7.87;;;3.03;;
47539;SDS011;33280;52.152;21.052;2023-04-06T09:11:40;6.57;;;2.83;;
47539;SDS011;33280;52.152;21.052;2023-04-06T09:14:15;5.70;;;2.80;;
47539;SDS011;33280;52.152;21.052;2023-04-06T09:16:43;6.47;;;2.90;;
47539;SDS011;33280;52.152;21.052;2023-04-06T09:19:12;6.13;;;3.10;;
47539;SDS011;33280;52.152;21.052;2023-04-06T09:21:39;7.33;;;2.87;;
47539;SDS011;33280;52.152;21.052;2023-04-06T09:24:07;4.47;;;2.80;;
47539;SDS011;33280;52.152;21.052;2023-04-06T09:26:45;5.43;;;2.80;;
47539;SDS011;33280;52.152;21.052;2023-04-06T09:29:23;6.30;;;3.17;;
47539;SDS011;33280;52.152;21.052;2023-04-06T09:32:01;6.67;;;3.20;;
47539;SDS011;33280;52.152;21.052;2023-04-06T09:34:29;4.67;;;2.87;;
47539;SDS011;33280;52.152;21.052;2023-04-06T09:36:57;5.57;;;3.37;;
47539;SDS011;33280;52.152;21.052;2023-04-06T09:39:25;8.13;;;3.20;;
47539;SDS011;33280;52.152;21.052;2023-04-06T09:41:55;5.80;;;3.47;;
47539;SDS011;33280;52.152;21.052;2023-04-06T09:44:22;6.00;;;3.50;;
47539;SDS011;33280;52.152;21.052;2023-04-06T09:46:50;7.87;;;3.70;;
47539;SDS011;33280;52.152;21.052;2023-04-06T09:49:30;6.53;;;3.70;;
47539;SDS011;33280;52.152;21.052;2023-04-06T09:52:00;6.10;;;3.67;;
47539;SDS011;33280;52.152;21.052;2023-04-06T09:54:30;7.33;;;3.73;;
47539;SDS011;33280;52.152;21.052;2023-04-06T09:57:35;8.97;;;4.13;;
47539;SDS011;33280;52.152;21.052;2023-04-06T10:08:22;6.40;;;3.73;;
47539;SDS011;33280;52.152;21.052;2023-04-06T10:10:57;6.80;;;3.83;;
47539;SDS011;33280;52.152;21.052;2023-04-06T10:13:27;7.83;;;4.10;;
47539;SDS011;33280;52.152;21.052;2023-04-06T10:15:54;5.93;;;4.00;;
47539;SDS011;33280;52.152;21.052;2023-04-06T10:18:21;7.77;;;4.37;;
47539;SDS011;33280;52.152;21.052;2023-04-06T10:21:04;6.30;;;4.20;;
47539;SDS011;33280;52.152;21.052;2023-04-06T10:23:36;8.83;;;4.70;;
47539;SDS011;33280;52.152;21.052;2023-04-06T10:26:11;9.60;;;5.07;;
47539;SDS011;33280;52.152;21.052;2023-04-06T10:28:41;9.70;;;5.20;;
47539;SDS011;33280;52.152;21.052;2023-04-06T10:31:09;9.93;;;5.83;;
47539;SDS011;33280;52.152;21.052;2023-04-06T10:33:36;9.00;;;6.00;;
47539;SDS011;33280;52.152;21.052;2023-04-06T10:36:37;8.27;;;5.60;;
47539;SDS011;33280;52.152;21.052;2023-04-06T10:39:01;10.40;;;5.73;;
47539;SDS011;33280;52.152;21.052;2023-04-06T10:41:43;10.37;;;6.43;;
47539;SDS011;33280;52.152;21.052;2023-04-06T10:44:21;12.97;;;6.67;;
47539;SDS011;33280;52.152;21.052;2023-04-06T10:46:56;10.50;;;6.40;;
47539;SDS011;33280;52.152;21.052;2023-04-06T10:49:27;12.87;;;6.40;;
47539;SDS011;33280;52.152;21.052;2023-04-06T10:51:54;7.67;;;5.10;;
47539;SDS011;33280;52.152;21.052;2023-04-06T10:54:23;8.77;;;5.57;;
47539;SDS011;33280;52.152;21.052;2023-04-06T10:56:51;8.40;;;5.20;;
47539;SDS011;33280;52.152;21.052;2023-04-06T10:59:19;7.67;;;5.10;;
47539;SDS011;33280;52.152;21.052;2023-04-06T11:01:48;10.07;;;4.93;;
47539;SDS011;33280;52.152;21.052;2023-04-06T11:04:19;10.93;;;6.03;;
47539;SDS011;33280;52.152;21.052;2023-04-06T11:06:50;8.83;;;6.33;;
47539;SDS011;33280;52.152;21.052;2023-04-06T11:09:24;10.73;;;6.97;;
47539;SDS011;33280;52.152;21.052;2023-04-06T11:11:53;10.67;;;6.60;;
47539;SDS011;33280;52.152;21.052;2023-04-06T11:14:22;12.20;;;6.80;;
47539;SDS011;33280;52.152;21.052;2023-04-06T11:16:50;13.77;;;7.03;;
47539;SDS011;33280;52.152;21.052;2023-04-06T11:19:17;11.20;;;7.50;;
47539;SDS011;33280;52.152;21.052;2023-04-06T11:21:48;10.87;;;7.17;;
47539;SDS011;33280;52.152;21.052;2023-04-06T11:29:20;9.87;;;6.33;;
47539;SDS011;33280;52.152;21.052;2023-04-06T11:31:50;9.23;;;6.30;;
47539;SDS011;33280;52.152;21.052;2023-04-06T11:34:19;10.50;;;6.80;;
47539;SDS011;33280;52.152;21.052;2023-04-06T11:36:55;12.97;;;7.10;;
47539;SDS011;33280;52.152;21.052;2023-04-06T11:39:25;12.20;;;7.17;;
47539;SDS011;33280;52.152;21.052;2023-04-06T11:41:54;9.60;;;7.03;;
47539;SDS011;33280;52.152;21.052;2023-04-06T11:47:06;12.27;;;6.63;;
47539;SDS011;33280;52.152;21.052;2023-04-06T11:49:36;9.23;;;5.90;;
47539;SDS011;33280;52.152;21.052;2023-04-06T11:52:13;10.83;;;6.00;;
47539;SDS011;33280;52.152;21.052;2023-04-06T11:54:45;10.57;;;6.17;;
47539;SDS011;33280;52.152;21.052;2023-04-06T11:57:17;9.87;;;5.80;;
47539;SDS011;33280;52.152;21.052;2023-04-06T11:59:46;9.07;;;5.73;;
47539;SDS011;33280;52.152;21.052;2023-04-06T12:02:13;10.40;;;5.93;;
47539;SDS011;33280;52.152;21.052;2023-04-06T12:04:40;8.60;;;5.40;;
47539;SDS011;33280;52.152;21.052;2023-04-06T12:07:07;11.13;;;5.30;;
47539;SDS011;33280;52.152;21.052;2023-04-06T12:09:34;10.23;;;5.27;;
47539;SDS011;33280;52.152;21.052;2023-04-06T12:12:08;10.30;;;5.27;;
47539;SDS011;33280;52.152;21.052;2023-04-06T12:14:38;8.03;;;5.17;;
47539;SDS011;33280;52.152;21.052;2023-04-06T12:17:05;7.80;;;4.83;;
47539;SDS011;33280;52.152;21.052;2023-04-06T12:19:32;8.80;;;4.97;;
47539;SDS011;33280;52.152;21.052;2023-04-06T12:21:59;7.33;;;5.00;;
47539;SDS011;33280;52.152;21.052;2023-04-06T12:24:27;7.70;;;4.67;;
47539;SDS011;33280;52.152;21.052;2023-04-06T12:26:58;9.37;;;4.77;;
47539;SDS011;33280;52.152;21.052;2023-04-06T12:29:35;7.20;;;4.53;;
47539;SDS011;33280;52.152;21.052;2023-04-06T12:32:02;9.20;;;5.00;;
47539;SDS011;33280;52.152;21.052;2023-04-06T12:34:29;8.83;;;5.50;;
47539;SDS011;33280;52.152;21.052;2023-04-06T12:36:56;8.40;;;5.20;;
47539;SDS011;33280;52.152;21.052;2023-04-06T12:39:23;9.57;;;5.80;;
47539;SDS011;33280;52.152;21.052;2023-04-06T12:41:52;8.37;;;5.00;;
47539;SDS011;33280;52.152;21.052;2023-04-06T12:44:19;8.83;;;5.10;;
47539;SDS011;33280;52.152;21.052;2023-04-06T12:46:46;8.13;;;4.60;;
47539;SDS011;33280;52.152;21.052;2023-04-06T12:49:13;9.20;;;5.27;;
47539;SDS011;33280;52.152;21.052;2023-04-06T12:51:40;9.60;;;5.57;;
47539;SDS011;33280;52.152;21.052;2023-04-06T12:54:06;7.50;;;5.00;;
47539;SDS011;33280;52.152;21.052;2023-04-06T12:56:33;8.80;;;5.33;;
47539;SDS011;33280;52.152;21.052;2023-04-06T12:59:01;9.00;;;5.23;;
47539;SDS011;33280;52.152;21.052;2023-04-06T13:01:28;11.07;;;5.57;;
47539;SDS011;33280;52.152;21.052;2023-04-06T13:03:56;7.93;;;4.80;;
47539;SDS011;33280;52.152;21.052;2023-04-06T13:06:24;11.40;;;5.60;;
47539;SDS011;33280;52.152;21.052;2023-04-06T13:08:59;8.23;;;5.37;;
47539;SDS011;33280;52.152;21.052;2023-04-06T13:18:45;8.97;;;5.07;;
47539;SDS011;33280;52.152;21.052;2023-04-06T13:21:15;7.57;;;4.50;;
47539;SDS011;33280;52.152;21.052;2023-04-06T13:23:43;8.50;;;4.57;;
47539;SDS011;33280;52.152;21.052;2023-04-06T13:26:10;8.13;;;4.80;;
47539;SDS011;33280;52.152;21.052;2023-04-06T13:28:39;8.50;;;4.83;;
47539;SDS011;33280;52.152;21.052;2023-04-06T13:31:07;7.63;;;5.07;;
47539;SDS011;33280;52.152;21.052;2023-04-06T13:33:35;7.27;;;4.40;;
47539;SDS011;33280;52.152;21.052;2023-04-06T13:36:02;7.87;;;4.80;;
47539;SDS011;33280;52.152;21.052;2023-04-06T13:38:29;8.07;;;4.90;;
47539;SDS011;33280;52.152;21.052;2023-04-06T13:40:57;8.27;;;5.17;;
47539;SDS011;33280;52.152;21.052;2023-04-06T13:43:36;8.67;;;5.30;;
47539;SDS011;33280;52.152;21.052;2023-04-06T13:46:03;8.80;;;4.73;;
47539;SDS011;33280;52.152;21.052;2023-04-06T13:51:17;7.73;;;4.77;;
47539;SDS011;33280;52.152;21.052;2023-04-06T13:53:44;8.53;;;4.90;;
47539;SDS011;33280;52.152;21.052;2023-04-06T13:56:12;10.03;;;5.07;;
47539;SDS011;33280;52.152;21.052;2023-04-06T13:58:39;8.60;;;5.00;;
47539;SDS011;33280;52.152;21.052;2023-04-06T14:01:07;9.73;;;5.30;;
47539;SDS011;33280;52.152;21.052;2023-04-06T14:03:36;9.90;;;5.50;;
47539;SDS011;33280;52.152;21.052;2023-04-06T14:06:09;7.80;;;4.60;;
47539;SDS011;33280;52.152;21.052;2023-04-06T14:08:42;7.90;;;4.77;;
47539;SDS011;33280;52.152;21.052;2023-04-06T14:11:12;8.53;;;5.20;;
47539;SDS011;33280;52.152;21.052;2023-04-06T14:13:40;9.50;;;4.73;;
47539;SDS011;33280;52.152;21.052;2023-04-06T14:16:08;9.37;;;5.30;;
47539;SDS011;33280;52.152;21.052;2023-04-06T14:18:36;9.37;;;5.40;;
47539;SDS011;33280;52.152;21.052;2023-04-06T14:21:03;8.10;;;5.20;;
47539;SDS011;33280;52.152;21.052;2023-04-06T14:23:33;6.83;;;4.80;;
47539;SDS011;33280;52.152;21.052;2023-04-06T14:26:05;9.87;;;5.37;;
47539;SDS011;33280;52.152;21.052;2023-04-06T14:28:35;8.13;;;4.90;;
47539;SDS011;33280;52.152;21.052;2023-04-06T14:31:08;9.60;;;5.23;;
47539;SDS011;33280;52.152;21.052;2023-04-06T14:33:38;8.03;;;5.10;;
47539;SDS011;33280;52.152;21.052;2023-04-06T14:36:06;9.57;;;5.33;;
47539;SDS011;33280;52.152;21.052;2023-04-06T14:38:33;7.70;;;4.90;;
47539;SDS011;33280;52.152;21.052;2023-04-06T14:41:08;13.90;;;5.40;;
47539;SDS011;33280;52.152;21.052;2023-04-06T14:43:35;7.30;;;4.73;;
47539;SDS011;33280;52.152;21.052;2023-04-06T14:46:02;9.80;;;5.00;;
47539;SDS011;33280;52.152;21.052;2023-04-06T14:48:31;8.43;;;4.83;;
47539;SDS011;33280;52.152;21.052;2023-04-06T14:50:58;9.87;;;5.53;;
47539;SDS011;33280;52.152;21.052;2023-04-06T14:53:25;9.97;;;5.43;;
47539;SDS011;33280;52.152;21.052;2023-04-06T14:55:53;12.93;;;6.37;;
47539;SDS011;33280;52.152;21.052;2023-04-06T14:58:21;8.33;;;5.17;;
47539;SDS011;33280;52.152;21.052;2023-04-06T15:00:49;9.77;;;5.60;;
47539;SDS011;33280;52.152;21.052;2023-04-06T15:03:21;9.70;;;5.30;;
47539;SDS011;33280;52.152;21.052;2023-04-06T15:05:49;9.23;;;5.07;;